Terminal Aerodrome Forecast
Issued by NWS

Home | Current Version | Previous Version | Graphics & Text | Print | Product List | Glossary On
Versions: 1 2 3 4 5 6 7 8 9 10 11 12 13 14 15 16 17 18 19 20 21 22 23 24 25 26
000
FTUS42 KMHX 271100
TAFPGV
TAF
KPGV 271125Z 2712/2812 00000KT 3SM BR SKC
      TEMPO 2712/2713 3/4SM BR VV005
     FM271300 22003KT P6SM SKC
     FM280000 00000KT P6SM SCT100
      AMD LTD TO CLD VIS AND WIND=

USA.gov is the U.S. government's official web portal to all federal, state and local government web resources and services.